Stan Humphreys — WDE6252 — position and weather

sailwx.info

Track history (hours):
 
Tides and Currents Weather Stations Pressure Air Temp Water Temp Dewpoint Dewpoint Depression Visibility Wind Speed Wind Dir Waves Ship Positions

Stan Humphreys

Owner: Magnolia Marine Transport company, Vicksburg, MS. More information available from US FCC via Universal Licensing System and Coast Guard Vessel Documentation Center.

Last reported at 2017-Nov-05 03:15 UTC. Time now 2017-Nov-23 05:24 UTC.
Position N 32°46' W 091°10'.
Warning: this ship's position is 18 days out of date.

Length 34 m.

Type: Towing. MMSI: 367377890.

Date/timePositionNaut miles runAvg speedWind from/ knotsBaromVisibWave heightAir tempDewpointWater temp
2017-Nov-05 03:15N 32°46' W 091°10'0 0.0
2017-Nov-05 02:59N 32°46' W 091°10'1 1.1
2017-Nov-05 02:04N 32°45' W 091°09'0 0.5
2017-Nov-05 02:00N 32°45' W 091°10'0 0.0
2017-Nov-05 01:29N 32°45' W 091°10'0 0.1
2017-Nov-05 00:58N 32°45' W 091°09'6 1.4
2017-Nov-04 21:05N 32°40' W 091°08'4 3.4
2017-Nov-04 19:57N 32°36' W 091°09'0 0.0
2017-Nov-04 19:24N 32°36' W 091°09'0 0.1
2017-Nov-04 19:00N 32°36' W 091°09'0 0.1
2017-Nov-04 18:30N 32°36' W 091°09'2 3.8
2017-Nov-04 18:00N 32°35' W 091°07'2 4.3
2017-Nov-04 17:30N 32°33' W 091°06'4 4.1
2017-Nov-04 16:38N 32°30' W 091°07'1 5.2
2017-Nov-04 16:30N 32°29' W 091°07'2 4.4
2017-Nov-04 16:00N 32°27' W 091°06'2 4.7
2017-Nov-04 15:30N 32°26' W 091°03'2 4.6
2017-Nov-04 15:00N 32°25' W 091°01'2 3.6
2017-Nov-04 14:30N 32°24' W 090°59'2 3.7
2017-Nov-04 14:00N 32°22' W 091°00'2 3.6
2017-Nov-04 13:30N 32°21' W 090°59'2 4.8
2017-Nov-04 13:00N 32°21' W 090°56'2 3.4
2017-Nov-04 12:30N 32°20' W 090°54'2 4.8
2017-Nov-04 12:00N 32°18' W 090°55'0 0.1
2017-Nov-04 11:30N 32°18' W 090°55'0 0.0
2017-Nov-04 11:00N 32°18' W 090°55'0 0.0
2017-Nov-04 10:30N 32°18' W 090°55'0 0.0
2017-Nov-04 10:00N 32°18' W 090°55'0 0.0
2017-Nov-04 09:30N 32°18' W 090°55'0 0.0
2017-Nov-04 09:00N 32°18' W 090°55'0 0.0
2017-Nov-04 08:30N 32°18' W 090°55'0 0.0
2017-Nov-04 08:00N 32°18' W 090°55'0 0.0
2017-Nov-04 07:30N 32°18' W 090°55'0 0.0
2017-Nov-04 07:00N 32°18' W 090°55'0 0.0
2017-Nov-04 06:30N 32°18' W 090°55'0 0.0
2017-Nov-04 06:00N 32°18' W 090°55'0 0.0
2017-Nov-04 05:30N 32°18' W 090°55'0 0.0
2017-Nov-04 05:00N 32°18' W 090°55'0 0.0
2017-Nov-04 04:30N 32°18' W 090°55'0 0.0
2017-Nov-04 04:00N 32°18' W 090°55'0 0.0
2017-Nov-04 03:30N 32°18' W 090°55'1 2.1
2017-Nov-04 03:00N 32°17' W 090°56'2 4.6
2017-Nov-04 02:30N 32°16' W 090°58'3 5.1
2017-Nov-04 02:00N 32°13' W 090°59'3 5.6
2017-Nov-04 01:30N 32°11' W 090°60'3 5.4
2017-Nov-04 01:00N 32°08' W 091°00'2 4.5
2017-Nov-04 00:29N 32°07' W 091°03'3 5.7
2017-Nov-04 00:00N 32°08' W 091°06'  
2017-Oct-28 06:21N 31°45' W 091°22'15 7.5
2017-Oct-28 04:18N 31°58' W 091°11'6 8.9
2017-Oct-28 03:41N 31°60' W 091°05'310.6
2017-Oct-28 03:25N 32°02' W 091°04'5 9.3
2017-Oct-28 02:54N 32°07' W 091°06'2 4.8
2017-Oct-28 02:26N 32°08' W 091°04'3 6.7
2017-Oct-28 02:00N 32°08' W 091°01'4 7.9
2017-Oct-28 01:30N 32°12' W 090°60'4 7.9
2017-Oct-28 01:00N 32°16' W 090°58'4 7.5
2017-Oct-28 00:30N 32°18' W 090°55'0 0.3
2017-Oct-28 00:00N 32°18' W 090°55'0 0.0
2017-Oct-27 23:30N 32°18' W 090°55'0 0.0
2017-Oct-27 23:00N 32°18' W 090°55'0 0.1
2017-Oct-27 22:30N 32°18' W 090°55'0 0.0
2017-Oct-27 22:00N 32°18' W 090°55'0 0.0
2017-Oct-27 21:30N 32°18' W 090°55'0 0.0
2017-Oct-27 21:00N 32°18' W 090°55'0 0.0
2017-Oct-27 20:30N 32°18' W 090°55'0 0.0
2017-Oct-27 20:00N 32°18' W 090°55'0 0.0
2017-Oct-27 19:30N 32°18' W 090°55'1 1.5
2017-Oct-27 19:00N 32°19' W 090°54'3 6.8
2017-Oct-27 18:30N 32°21' W 090°58'4 7.2
2017-Oct-27 18:00N 32°24' W 090°59'510.1
2017-Oct-27 17:30N 32°27' W 091°04'5 9.1
2017-Oct-27 16:55N 32°32' W 091°06'410.1
2017-Oct-27 16:30N 32°36' W 091°08'  
Track history (hours):
 
Tides and Currents Weather Stations Pressure Air Temp Water Temp Dewpoint Dewpoint Depression Visibility Wind Speed Wind Dir Waves Ship Positions

Stan Humphreys

Owner: Magnolia Marine Transport company, Vicksburg, MS. More information available from US FCC via Universal Licensing System and Coast Guard Vessel Documentation Center.

Last reported at 2017-Nov-05 03:15 UTC. Time now 2017-Nov-23 05:24 UTC.
Position N 32°46' W 091°10'.
Warning: this ship's position is 18 days out of date.

Length 34 m.

Type: Towing. MMSI: 367377890.

Date/timePositionNaut miles runAvg speedWind from/ knotsBaromVisibWave heightAir tempDewpointWater temp
2017-Nov-05 03:15N 32°46' W 091°10'0 0.0
2017-Nov-05 02:59N 32°46' W 091°10'1 1.1
2017-Nov-05 02:04N 32°45' W 091°09'0 0.5
2017-Nov-05 02:00N 32°45' W 091°10'0 0.0
2017-Nov-05 01:29N 32°45' W 091°10'0 0.1
2017-Nov-05 00:58N 32°45' W 091°09'6 1.4
2017-Nov-04 21:05N 32°40' W 091°08'4 3.4
2017-Nov-04 19:57N 32°36' W 091°09'0 0.0
2017-Nov-04 19:24N 32°36' W 091°09'0 0.1
2017-Nov-04 19:00N 32°36' W 091°09'0 0.1
2017-Nov-04 18:30N 32°36' W 091°09'2 3.8
2017-Nov-04 18:00N 32°35' W 091°07'2 4.3
2017-Nov-04 17:30N 32°33' W 091°06'4 4.1
2017-Nov-04 16:38N 32°30' W 091°07'1 5.2
2017-Nov-04 16:30N 32°29' W 091°07'2 4.4
2017-Nov-04 16:00N 32°27' W 091°06'2 4.7
2017-Nov-04 15:30N 32°26' W 091°03'2 4.6
2017-Nov-04 15:00N 32°25' W 091°01'2 3.6
2017-Nov-04 14:30N 32°24' W 090°59'2 3.7
2017-Nov-04 14:00N 32°22' W 091°00'2 3.6
2017-Nov-04 13:30N 32°21' W 090°59'2 4.8
2017-Nov-04 13:00N 32°21' W 090°56'2 3.4
2017-Nov-04 12:30N 32°20' W 090°54'2 4.8
2017-Nov-04 12:00N 32°18' W 090°55'0 0.1
2017-Nov-04 11:30N 32°18' W 090°55'0 0.0
2017-Nov-04 11:00N 32°18' W 090°55'0 0.0
2017-Nov-04 10:30N 32°18' W 090°55'0 0.0
2017-Nov-04 10:00N 32°18' W 090°55'0 0.0
2017-Nov-04 09:30N 32°18' W 090°55'0 0.0
2017-Nov-04 09:00N 32°18' W 090°55'0 0.0
2017-Nov-04 08:30N 32°18' W 090°55'0 0.0
2017-Nov-04 08:00N 32°18' W 090°55'0 0.0
2017-Nov-04 07:30N 32°18' W 090°55'0 0.0
2017-Nov-04 07:00N 32°18' W 090°55'0 0.0
2017-Nov-04 06:30N 32°18' W 090°55'0 0.0
2017-Nov-04 06:00N 32°18' W 090°55'0 0.0
2017-Nov-04 05:30N 32°18' W 090°55'0 0.0
2017-Nov-04 05:00N 32°18' W 090°55'0 0.0
2017-Nov-04 04:30N 32°18' W 090°55'0 0.0
2017-Nov-04 04:00N 32°18' W 090°55'0 0.0
2017-Nov-04 03:30N 32°18' W 090°55'1 2.1
2017-Nov-04 03:00N 32°17' W 090°56'2 4.6
2017-Nov-04 02:30N 32°16' W 090°58'3 5.1
2017-Nov-04 02:00N 32°13' W 090°59'3 5.6
2017-Nov-04 01:30N 32°11' W 090°60'3 5.4
2017-Nov-04 01:00N 32°08' W 091°00'2 4.5
2017-Nov-04 00:29N 32°07' W 091°03'3 5.7
2017-Nov-04 00:00N 32°08' W 091°06'  
2017-Oct-28 06:21N 31°45' W 091°22'15 7.5
2017-Oct-28 04:18N 31°58' W 091°11'6 8.9
2017-Oct-28 03:41N 31°60' W 091°05'310.6
2017-Oct-28 03:25N 32°02' W 091°04'5 9.3
2017-Oct-28 02:54N 32°07' W 091°06'2 4.8
2017-Oct-28 02:26N 32°08' W 091°04'3 6.7
2017-Oct-28 02:00N 32°08' W 091°01'4 7.9
2017-Oct-28 01:30N 32°12' W 090°60'4 7.9
2017-Oct-28 01:00N 32°16' W 090°58'4 7.5
2017-Oct-28 00:30N 32°18' W 090°55'0 0.3
2017-Oct-28 00:00N 32°18' W 090°55'0 0.0
2017-Oct-27 23:30N 32°18' W 090°55'0 0.0
2017-Oct-27 23:00N 32°18' W 090°55'0 0.1
2017-Oct-27 22:30N 32°18' W 090°55'0 0.0
2017-Oct-27 22:00N 32°18' W 090°55'0 0.0
2017-Oct-27 21:30N 32°18' W 090°55'0 0.0
2017-Oct-27 21:00N 32°18' W 090°55'0 0.0
2017-Oct-27 20:30N 32°18' W 090°55'0 0.0
2017-Oct-27 20:00N 32°18' W 090°55'0 0.0
2017-Oct-27 19:30N 32°18' W 090°55'1 1.5
2017-Oct-27 19:00N 32°19' W 090°54'3 6.8
2017-Oct-27 18:30N 32°21' W 090°58'4 7.2
2017-Oct-27 18:00N 32°24' W 090°59'510.1
2017-Oct-27 17:30N 32°27' W 091°04'5 9.1
2017-Oct-27 16:55N 32°32' W 091°06'410.1
2017-Oct-27 16:30N 32°36' W 091°08'  

Dump ship's entire track history